Terminal Aerodrome Forecast
Issued by NWS

Home | Current Version | Previous Version | Text Only | Print | Product List | Glossary On
Versions: 1 2 3 4 5 6 7 8 9 10 11 12 13 14 15 16 17 18 19 20 21 22 23 24 25
704
FTUS43 KABR 200347 AAE
TAFATY
TAF AMD
KATY 200347Z 2004/2024 22015G28KT 4SM TSRA OVC035CB
      TEMPO 2004/2005 2SM TSGR BKN009 OVC025CB
     FM200500 26013KT P6SM VCTS OVC050CB
     FM200600 30011KT P6SM BKN070
     FM201000 27009KT P6SM SCT130
     FM202300 20008KT P6SM SKC=

USA.gov is the U.S. government's official web portal to all federal, state and local government web resources and services.